Time;durP1;ratioP1;P1;durP2;ratioP2;P2;SDS_P1;SDS_P2;PMS_P1;PMS_P2;Temp;Humidity;BMP_temperature;BMP_pressure;BME280_temperature;BME280_humidity;BME280_pressure;Samples;Min_cycle;Max_cycle;Signal;HPM_P1;HPM_P2
2022/03/14 00:03:38;;;;;;;2.67;2.20;;;;;9.90;101158.00;;;;10507711;28;20203;-79
2022/03/14 00:08:42;;;;;;;4.13;2.50;;;;;9.90;101149.00;;;;10507988;28;20270;-78
2022/03/14 00:13:46;;;;;;;2.97;2.13;;;;;9.80;101164.00;;;;10507221;28;20242;-78
2022/03/14 00:18:50;;;;;;;2.67;2.37;;;;;9.80;101170.00;;;;10490930;28;20185;-79
2022/03/14 00:23:54;;;;;;;3.00;2.70;;;;;9.80;101167.00;;;;10506034;28;20253;-79
2022/03/14 00:28:56;;;;;;;3.30;2.70;;;;;9.80;101177.00;;;;10523263;28;20205;-79
2022/03/14 00:33:58;;;;;;;2.90;2.70;;;;;9.70;101179.00;;;;10473886;28;20209;-78
2022/03/14 00:39:00;;;;;;;2.70;2.50;;;;;9.70;101180.00;;;;10490082;28;20221;-78
2022/03/14 00:44:03;;;;;;;3.10;2.80;;;;;9.60;101185.00;;;;10490174;28;20243;-78
2022/03/14 00:49:05;;;;;;;2.73;2.47;;;;;9.60;101194.00;;;;10523123;28;20306;-79
2022/03/14 00:54:07;;;;;;;2.43;2.23;;;;;9.60;101204.00;;;;10522795;28;20212;-78
2022/03/14 00:59:09;;;;;;;3.27;2.40;;;;;9.60;101215.00;;;;10505681;28;20192;-78
2022/03/14 01:04:11;;;;;;;3.90;2.63;;;;;9.60;101228.00;;;;10488888;28;20208;-79
2022/03/14 01:09:14;;;;;;;5.97;2.50;;;;;9.50;101244.00;;;;10489014;28;20217;-78
2022/03/14 01:14:17;;;;;;;6.53;2.77;;;;;9.50;101253.00;;;;10505337;28;20236;-78
2022/03/14 01:19:19;;;;;;;4.63;3.07;;;;;9.50;101276.00;;;;10505239;28;20211;-79
2022/03/14 01:24:24;;;;;;;3.00;2.80;;;;;9.40;101275.00;;;;10478714;28;20680;-78
2022/03/14 01:29:26;;;;;;;4.37;2.73;;;;;9.40;101287.00;;;;10474835;28;20261;-78
2022/03/14 01:34:28;;;;;;;4.87;3.47;;;;;9.40;101289.00;;;;10487483;28;20204;-78
2022/03/14 01:39:31;;;;;;;6.17;3.97;;;;;9.40;101305.00;;;;10503308;28;20225;-78
2022/03/14 01:44:33;;;;;;;5.17;4.47;;;;;9.40;101311.00;;;;10520453;28;20200;-79
2022/03/14 01:49:35;;;;;;;7.27;4.80;;;;;9.40;101306.00;;;;10519887;28;20215;-78
2022/03/14 01:54:47;;;;;;;6.03;4.80;;;;;9.30;101303.00;;;;10504108;28;20242;-78
2022/03/14 01:59:49;;;;;;;7.60;5.20;;;;;9.30;101298.00;;;;10459129;28;20190;-78
2022/03/14 02:04:54;;;;;;;8.33;4.80;;;;;9.20;101328.00;;;;10458760;28;20196;-78
2022/03/14 02:09:58;;;;;;;6.93;5.43;;;;;9.10;101329.00;;;;10503298;28;20266;-78
2022/03/14 02:15:00;;;;;;;7.63;5.73;;;;;9.00;101326.00;;;;10503146;28;20218;-78
2022/03/14 02:20:03;;;;;;;8.17;7.03;;;;;8.90;101346.00;;;;10502246;28;20193;-79
2022/03/14 02:25:09;;;;;;;7.27;6.27;;;;;8.80;101350.00;;;;10502915;28;20266;-78
2022/03/14 02:30:11;;;;;;;12.33;7.63;;;;;8.70;101346.00;;;;10469457;28;20204;-78
2022/03/14 02:35:15;;;;;;;11.60;8.20;;;;;8.70;101369.00;;;;10487178;28;20197;-78
2022/03/14 02:40:19;;;;;;;14.97;8.60;;;;;8.70;101368.00;;;;10518264;28;20754;-78
2022/03/14 02:45:21;;;;;;;11.80;7.90;;;;;8.70;101379.00;;;;10492932;28;20197;-79
2022/03/14 02:50:23;;;;;;;12.37;8.77;;;;;8.70;101390.00;;;;10501913;28;20209;-78
2022/03/14 02:55:26;;;;;;;12.53;8.93;;;;;8.80;101386.00;;;;10519000;28;20192;-78
2022/03/14 03:00:29;;;;;;;12.17;8.80;;;;;8.80;101398.00;;;;10518935;28;20185;-78
2022/03/14 03:05:31;;;;;;;13.50;9.50;;;;;8.80;101402.00;;;;10501764;28;20203;-78
2022/03/14 03:10:34;;;;;;;14.57;10.13;;;;;8.90;101410.00;;;;10476527;28;20243;-78
2022/03/14 03:15:37;;;;;;;12.50;9.93;;;;;8.90;101440.00;;;;10461081;28;20272;-78
2022/03/14 03:20:39;;;;;;;19.30;10.77;;;;;9.00;101452.00;;;;10443445;28;20206;-78
2022/03/14 03:25:42;;;;;;;19.13;11.80;;;;;9.10;101455.00;;;;10427241;28;20236;-78
2022/03/14 03:30:44;;;;;;;15.83;11.37;;;;;9.10;101468.00;;;;10443817;28;20206;-78
2022/03/14 03:35:46;;;;;;;16.40;12.23;;;;;9.10;101475.00;;;;10480383;28;20201;-78
2022/03/14 03:40:48;;;;;;;12.67;10.80;;;;;9.10;101476.00;;;;10484407;28;20311;-78
2022/03/14 03:45:50;;;;;;;17.17;11.10;;;;;9.10;101476.00;;;;10517980;28;20197;-78
2022/03/14 03:50:52;;;;;;;20.07;10.27;;;;;9.10;101501.00;;;;10484012;28;20205;-78
2022/03/14 03:55:56;;;;;;;17.27;10.77;;;;;9.10;101511.00;;;;10496614;28;20254;-78
2022/03/14 04:00:58;;;;;;;19.23;10.67;;;;;9.10;101507.00;;;;10490603;28;20250;-78
2022/03/14 04:06:00;;;;;;;15.70;11.63;;;;;9.10;101519.00;;;;10485643;28;20205;-78
2022/03/14 04:11:04;;;;;;;19.37;10.70;;;;;9.10;101534.00;;;;10482686;28;20205;-78
2022/03/14 04:16:07;;;;;;;18.67;10.47;;;;;9.10;101532.00;;;;10482713;28;20228;-78
2022/03/14 04:21:09;;;;;;;12.10;10.50;;;;;9.10;101545.00;;;;10499150;28;20193;-78
2022/03/14 04:26:11;;;;;;;14.23;9.97;;;;;9.10;101554.00;;;;10466093;28;20197;-78
2022/03/14 04:31:13;;;;;;;17.73;11.37;;;;;9.10;101562.00;;;;10482426;28;20198;-78
2022/03/14 04:36:15;;;;;;;15.07;11.30;;;;;9.10;101567.00;;;;10465627;28;20198;-79
2022/03/14 04:41:17;;;;;;;18.50;11.40;;;;;9.10;101574.00;;;;10452479;28;20232;-76
2022/03/14 04:46:19;;;;;;;12.70;9.23;;;;;9.10;101577.00;;;;10448612;28;20206;-76
2022/03/14 04:51:21;;;;;;;12.20;9.63;;;;;9.10;101594.00;;;;10480961;28;20198;-79
2022/03/14 04:56:23;;;;;;;16.80;10.13;;;;;9.10;101601.00;;;;10447809;28;20198;-79
2022/03/14 05:01:25;;;;;;;11.33;9.67;;;;;9.10;101615.00;;;;10464437;28;20186;-79
2022/03/14 05:06:28;;;;;;;16.10;9.87;;;;;9.10;101622.00;;;;10490326;28;20295;-79
2022/03/14 05:11:32;;;;;;;13.23;9.80;;;;;9.10;101623.00;;;;10506062;28;20208;-79
2022/03/14 05:16:34;;;;;;;13.20;9.90;;;;;9.10;101646.00;;;;10472414;28;20222;-77
2022/03/14 05:21:37;;;;;;;17.93;10.00;;;;;9.10;101646.00;;;;10488384;28;20711;-76
2022/03/14 05:26:39;;;;;;;15.47;9.90;;;;;9.10;101660.00;;;;10505671;28;20193;-78
2022/03/14 05:31:41;;;;;;;14.50;9.80;;;;;9.00;101662.00;;;;10488716;28;20770;-79
2022/03/14 05:36:44;;;;;;;14.33;10.30;;;;;9.10;101668.00;;;;10480358;28;20259;-79
2022/03/14 05:41:45;;;;;;;15.47;10.80;;;;;9.10;101679.00;;;;10518513;28;20244;-79
2022/03/14 05:46:47;;;;;;;17.17;10.77;;;;;9.10;101682.00;;;;10490228;28;20283;-79
2022/03/14 05:51:49;;;;;;;15.17;11.67;;;;;9.10;101683.00;;;;10487215;28;20209;-76
2022/03/14 05:56:51;;;;;;;18.17;12.30;;;;;9.00;101702.00;;;;10476235;28;20239;-78
2022/03/14 06:01:54;;;;;;;17.97;11.33;;;;;9.00;101712.00;;;;10479393;28;20208;-79
2022/03/14 06:06:56;;;;;;;17.93;11.60;;;;;9.00;101718.00;;;;10486695;28;20203;-79
2022/03/14 06:11:58;;;;;;;16.73;10.90;;;;;9.10;101717.00;;;;10484645;28;20204;-79
2022/03/14 06:17:00;;;;;;;18.10;10.67;;;;;9.10;101735.00;;;;10470098;28;20651;-78
2022/03/14 06:22:02;;;;;;;15.03;9.97;;;;;9.10;101737.00;;;;10486703;28;20240;-79
2022/03/14 06:27:19;;;;;;;13.87;10.40;;;;;9.10;101745.00;;;;10503073;28;20204;-78
2022/03/14 06:32:33;;;;;;;14.60;10.30;;;;;9.10;101758.00;;;;10486560;28;20683;-76
2022/03/14 06:37:35;;;;;;;15.07;11.10;;;;;9.10;101749.00;;;;10514589;28;20201;-78
2022/03/14 06:42:41;;;;;;;15.47;9.53;;;;;9.10;101759.00;;;;10530761;28;20204;-76
2022/03/14 06:47:43;;;;;;;18.67;11.10;;;;;9.20;101769.00;;;;10491053;28;20214;-76
2022/03/14 06:52:45;;;;;;;15.63;11.27;;;;;9.30;101772.00;;;;10468940;28;20257;-79
2022/03/14 06:57:48;;;;;;;14.40;10.63;;;;;9.40;101785.00;;;;10532426;28;20213;-79
2022/03/14 07:02:50;;;;;;;16.67;9.77;;;;;9.40;101796.00;;;;10486535;28;20232;-78
2022/03/14 07:07:53;;;;;;;15.13;10.53;;;;;9.60;101795.00;;;;10480761;28;20209;-78
2022/03/14 07:12:56;;;;;;;17.40;10.37;;;;;9.80;101815.00;;;;10478176;28;20571;-78
2022/03/14 07:17:58;;;;;;;15.53;10.00;;;;;10.00;101825.00;;;;10492839;28;20189;-78
2022/03/14 07:23:01;;;;;;;12.13;8.80;;;;;10.00;101822.00;;;;10469327;28;20197;-78
2022/03/14 07:28:05;;;;;;;15.37;8.73;;;;;10.00;101835.00;;;;10506392;28;20193;-78
2022/03/14 07:33:08;;;;;;;14.97;8.57;;;;;10.10;101832.00;;;;10505654;28;20189;-78
2022/03/14 07:38:10;;;;;;;13.80;8.93;;;;;10.30;101835.00;;;;10479350;28;20300;-78
2022/03/14 07:43:12;;;;;;;7.97;6.37;;;;;10.40;101846.00;;;;10487336;28;20196;-79
2022/03/14 07:48:14;;;;;;;14.77;8.30;;;;;10.40;101854.00;;;;10455514;28;20190;-78
2022/03/14 07:53:16;;;;;;;20.20;8.50;;;;;10.80;101851.00;;;;10468686;28;20197;-76
2022/03/14 07:58:18;;;;;;;14.20;7.37;;;;;11.20;101869.00;;;;10454392;28;20599;-77
2022/03/14 08:03:22;;;;;;;18.50;8.30;;;;;11.00;101891.00;;;;10534329;28;20200;-79
2022/03/14 08:08:25;;;;;;;13.77;7.60;;;;;10.80;101902.00;;;;10504798;28;20613;-78
2022/03/14 08:13:27;;;;;;;17.67;7.47;;;;;10.60;101905.00;;;;10477536;28;20196;-78
2022/03/14 08:18:29;;;;;;;18.60;7.90;;;;;10.70;101912.00;;;;10475351;28;20185;-76
2022/03/14 08:23:34;;;;;;;13.90;7.40;;;;;11.00;101913.00;;;;10507877;28;20196;-76
2022/03/14 08:28:37;;;;;;;17.20;7.67;;;;;11.10;101915.00;;;;10541839;28;20211;-76
2022/03/14 08:33:41;;;;;;;15.07;6.97;;;;;11.50;101918.00;;;;10483208;28;20185;-76
2022/03/14 08:38:43;;;;;;;24.57;8.20;;;;;11.90;101919.00;;;;10507404;28;20311;-76
2022/03/14 08:43:46;;;;;;;11.97;6.97;;;;;12.40;101927.00;;;;10504147;28;20199;-76
2022/03/14 08:48:48;;;;;;;15.50;6.43;;;;;12.20;101949.00;;;;10539925;28;20698;-76
2022/03/14 08:53:50;;;;;;;12.13;5.37;;;;;11.70;101952.00;;;;10522994;28;20223;-76
2022/03/14 08:58:53;;;;;;;13.00;6.00;;;;;11.60;101955.00;;;;10522643;28;20189;-76
2022/03/14 09:03:55;;;;;;;12.73;5.37;;;;;11.60;101967.00;;;;10486162;28;20192;-76
2022/03/14 09:08:57;;;;;;;16.27;5.40;;;;;11.70;101979.00;;;;10505835;28;20208;-75
2022/03/14 09:13:59;;;;;;;14.80;5.60;;;;;11.80;101981.00;;;;10506187;28;20239;-76
2022/03/14 09:19:02;;;;;;;12.40;4.90;;;;;12.10;101991.00;;;;10505282;28;20230;-76
2022/03/14 09:24:04;;;;;;;12.93;5.03;;;;;12.50;102009.00;;;;10505444;28;20659;-76
2022/03/14 09:29:08;;;;;;;12.23;4.60;;;;;12.70;102015.00;;;;10460885;28;20229;-76
2022/03/14 09:34:10;;;;;;;15.50;4.70;;;;;12.90;102019.00;;;;10470712;28;20197;-77
2022/03/14 09:39:14;;;;;;;12.30;5.17;;;;;13.00;102015.00;;;;10488247;28;20233;-78
2022/03/14 09:44:19;;;;;;;12.47;4.23;;;;;13.40;102011.00;;;;10504997;28;20238;-78
2022/03/14 09:49:22;;;;;;;13.60;4.40;;;;;13.70;102022.00;;;;10471371;28;20667;-77
2022/03/14 09:54:24;;;;;;;8.87;3.63;;;;;13.70;102038.00;;;;10504036;28;20276;-77
2022/03/14 09:59:35;;;;;;;12.40;3.67;;;;;13.50;102047.00;;;;10505929;28;20829;-77
2022/03/14 10:04:36;;;;;;;16.47;4.37;;;;;13.50;102054.00;;;;10493805;28;20194;-77
2022/03/14 10:09:38;;;;;;;11.97;4.40;;;;;13.70;102071.00;;;;10479710;28;20206;-77
2022/03/14 10:14:41;;;;;;;10.10;3.93;;;;;13.70;102076.00;;;;10496066;28;20284;-77
2022/03/14 10:19:53;;;;;;;11.07;4.03;;;;;13.60;102081.00;;;;10497231;28;20181;-78
2022/03/14 10:25:03;;;;;;;15.40;4.97;;;;;13.40;102087.00;;;;10478977;28;20202;-77
2022/03/14 10:30:07;;;;;;;10.13;4.40;;;;;13.90;102088.00;;;;10478129;28;20209;-77
2022/03/14 10:35:13;;;;;;;9.87;4.50;;;;;13.60;102089.00;;;;10536886;28;20189;-77
2022/03/14 10:40:15;;;;;;;13.73;4.70;;;;;13.40;102097.00;;;;10461576;28;20328;-77
2022/03/14 10:45:18;;;;;;;13.57;4.90;;;;;13.60;102098.00;;;;10477962;28;20186;-77
2022/03/14 10:50:29;;;;;;;15.53;5.57;;;;;13.80;102099.00;;;;10503226;28;20209;-77
2022/03/14 10:55:43;;;;;;;13.37;4.90;;;;;14.10;102104.00;;;;10502637;28;20189;-77
2022/03/14 11:00:53;;;;;;;11.97;4.90;;;;;14.70;102114.00;;;;10502909;28;20651;-77
2022/03/14 11:06:02;;;;;;;10.77;4.17;;;;;14.80;102126.00;;;;10467844;28;20197;-78
2022/03/14 11:11:06;;;;;;;12.23;4.87;;;;;15.40;102130.00;;;;10514026;28;20204;-77
2022/03/14 11:16:19;;;;;;;11.37;4.60;;;;;15.60;102136.00;;;;10511372;28;20217;-77
2022/03/14 11:21:24;;;;;;;10.20;4.53;;;;;15.50;102135.00;;;;10483011;28;20197;-77
2022/03/14 11:26:26;;;;;;;9.37;5.10;;;;;15.50;102134.00;;;;10485148;28;20543;-77
2022/03/14 11:31:28;;;;;;;12.33;4.43;;;;;15.50;102143.00;;;;10480545;28;20258;-77
2022/03/14 11:36:31;;;;;;;10.23;4.10;;;;;15.50;102137.00;;;;10543952;28;20234;-78
2022/03/14 11:41:34;;;;;;;10.07;4.10;;;;;16.00;102131.00;;;;10492867;28;20220;-77
2022/03/14 11:46:37;;;;;;;12.47;4.57;;;;;16.00;102140.00;;;;10488547;28;20196;-78
2022/03/14 11:51:40;;;;;;;12.77;4.87;;;;;17.00;102130.00;;;;10509570;28;20485;-77
2022/03/14 11:56:55;;;;;;;17.67;5.43;;;;;18.50;102128.00;;;;10509381;28;20252;-78
2022/03/14 12:02:00;;;;;;;13.05;4.63;;;;;19.20;102122.00;;;;10525677;28;20631;-76
2022/03/14 12:07:06;;;;;;;9.90;4.68;;;;;18.90;102130.00;;;;10508394;28;20223;-78
2022/03/14 12:12:24;;;;;;;7.75;4.28;;;;;18.70;102130.00;;;;10507855;28;20740;-78
2022/03/14 12:17:31;;;;;;;13.05;5.13;;;;;19.50;102109.00;;;;10506668;28;20237;-77
2022/03/14 12:22:36;;;;;;;11.52;5.03;;;;;19.60;102109.00;;;;10524646;28;20197;-78
2022/03/14 12:27:40;;;;;;;10.52;4.72;;;;;21.20;102105.00;;;;10523949;28;20216;-76
2022/03/14 12:32:55;;;;;;;11.40;4.72;;;;;21.60;102100.00;;;;10499551;28;20212;-76
2022/03/14 12:38:15;;;;;;;11.05;4.25;;;;;22.00;102110.00;;;;10506139;28;20235;-76
2022/03/14 12:43:23;;;;;;;8.63;4.45;;;;;22.60;102104.00;;;;10506677;28;20201;-76
2022/03/14 12:48:28;;;;;;;16.35;5.28;;;;;20.50;102118.00;;;;10523330;28;20189;-76
2022/03/14 12:53:39;;;;;;;8.98;4.57;;;;;19.30;102119.00;;;;10494637;28;20204;-76
2022/03/14 12:59:01;;;;;;;11.93;5.00;;;;;19.00;102131.00;;;;10466857;28;20200;-76
2022/03/14 13:04:12;;;;;;;9.63;5.13;;;;;19.10;102119.00;;;;10499591;28;20201;-76
2022/03/14 13:09:14;;;;;;;7.40;4.05;;;;;17.60;102118.00;;;;10491445;28;20217;-76
2022/03/14 13:14:17;;;;;;;9.60;4.75;;;;;16.70;102111.00;;;;10539439;28;20238;-78
2022/03/14 13:19:26;;;;;;;12.60;4.68;;;;;18.20;102103.00;;;;10506404;28;20193;-78
2022/03/14 13:24:28;;;;;;;7.35;2.95;;;;;20.30;102096.00;;;;10475127;28;20204;-79
2022/03/14 13:29:33;;;;;;;9.68;2.88;;;;;21.20;102100.00;;;;10504823;28;20209;-76
2022/03/14 13:34:36;;;;;;;10.15;2.83;;;;;21.70;102096.00;;;;10488324;28;20203;-76
2022/03/14 13:39:40;;;;;;;5.53;2.60;;;;;21.30;102088.00;;;;10488332;28;20229;-76
2022/03/14 13:44:42;;;;;;;5.35;1.98;;;;;22.40;102075.00;;;;10506178;28;20185;-76
2022/03/14 13:49:47;;;;;;;5.50;1.98;;;;;24.60;102055.00;;;;10521511;28;20216;-77
2022/03/14 13:54:52;;;;;;;5.82;2.17;;;;;25.20;102039.00;;;;10487908;28;20197;-76
2022/03/14 13:59:55;;;;;;;7.72;2.00;;;;;26.40;102032.00;;;;10490996;28;20247;-76
2022/03/14 14:04:57;;;;;;;6.53;1.67;;;;;26.50;102017.00;;;;10459701;28;20201;-76
2022/03/14 14:10:01;;;;;;;3.47;1.58;;;;;25.10;102069.00;;;;10503807;28;20201;-77
2022/03/14 14:15:08;;;;;;;5.97;2.25;;;;;24.40;102022.00;;;;10538376;28;20659;-76
2022/03/14 14:20:31;;;;;;;4.72;1.70;;;;;24.60;102025.00;;;;10474499;28;20208;-76
2022/03/14 14:25:35;;;;;;;3.05;1.55;;;;;25.70;102028.00;;;;10537829;28;20195;-76
2022/03/14 14:30:43;;;;;;;2.95;1.08;;;;;25.40;102030.00;;;;10503106;28;20220;-76
2022/03/14 14:35:51;;;;;;;3.10;1.10;;;;;26.80;101999.00;;;;10519135;28;20189;-76
2022/03/14 14:40:56;;;;;;;3.65;1.42;;;;;27.20;102018.00;;;;10518662;28;20269;-76
2022/03/14 14:46:00;;;;;;;4.13;1.63;;;;;26.70;102011.00;;;;10502214;28;20177;-78
2022/03/14 14:51:03;;;;;;;6.20;1.73;;;;;26.50;102024.00;;;;10486219;28;20221;-76
2022/03/14 14:56:07;;;;;;;5.57;2.05;;;;;25.70;102034.00;;;;10516366;28;20224;-77
2022/03/14 15:01:10;;;;;;;4.35;1.83;;;;;23.40;102063.00;;;;10485748;28;20187;-78
2022/03/14 15:06:14;;;;;;;5.10;1.88;;;;;21.80;102064.00;;;;10485691;28;20224;-77
2022/03/14 15:11:16;;;;;;;13.18;2.75;;;;;22.60;102073.00;;;;10501903;28;20302;-77
2022/03/14 15:16:18;;;;;;;6.25;1.60;;;;;19.30;102056.00;;;;10513895;28;20271;-77
2022/03/14 15:21:20;;;;;;;4.45;1.70;;;;;21.20;102045.00;;;;10503080;28;20189;-77
2022/03/14 15:26:27;;;;;;;5.10;1.80;;;;;22.10;102065.00;;;;10539492;28;20284;-77
2022/03/14 15:31:33;;;;;;;4.75;1.55;;;;;20.50;102101.00;;;;10516796;28;20212;-77
2022/03/14 15:36:37;;;;;;;5.07;2.05;;;;;20.90;102071.00;;;;10468471;28;20211;-77
2022/03/14 15:41:39;;;;;;;6.97;1.98;;;;;22.20;102087.00;;;;10500855;28;20302;-77
2022/03/14 15:46:41;;;;;;;4.18;1.80;;;;;20.10;102111.00;;;;10542336;28;20666;-78
2022/03/14 15:51:44;;;;;;;7.55;1.92;;;;;18.40;102119.00;;;;10517024;28;20219;-77
2022/03/14 15:56:45;;;;;;;8.18;2.00;;;;;17.50;102131.00;;;;10457780;28;20206;-77
2022/03/14 16:01:48;;;;;;;7.72;2.10;;;;;16.60;102125.00;;;;10476004;28;20616;-77
2022/03/14 16:06:51;;;;;;;4.57;2.03;;;;;16.10;102126.00;;;;10495050;28;20251;-77
2022/03/14 16:11:53;;;;;;;10.33;2.43;;;;;15.60;102141.00;;;;10488450;28;20197;-77
2022/03/14 16:16:56;;;;;;;11.60;2.03;;;;;15.20;102137.00;;;;10480763;28;20224;-76
2022/03/14 16:21:58;;;;;;;11.33;2.07;;;;;15.00;102134.00;;;;10485776;28;20193;-77
2022/03/14 16:27:01;;;;;;;3.80;1.70;;;;;15.00;102145.00;;;;10469971;28;20283;-77
2022/03/14 16:32:03;;;;;;;10.67;2.00;;;;;14.90;102145.00;;;;10482667;28;20252;-77
2022/03/14 16:37:05;;;;;;;8.20;2.00;;;;;14.70;102132.00;;;;10499650;28;20655;-78
2022/03/14 16:42:07;;;;;;;10.77;2.87;;;;;14.50;102135.00;;;;10529702;28;20217;-78
2022/03/14 16:47:09;;;;;;;8.30;2.13;;;;;14.30;102143.00;;;;10553851;28;20196;-78
2022/03/14 16:52:15;;;;;;;7.13;2.23;;;;;14.00;102145.00;;;;10488029;28;20205;-79
2022/03/14 16:57:17;;;;;;;10.00;1.90;;;;;13.80;102153.00;;;;10518001;28;20190;-78
2022/03/14 17:02:19;;;;;;;5.47;1.83;;;;;13.50;102163.00;;;;10512788;28;20252;-78
2022/03/14 17:07:22;;;;;;;11.77;2.20;;;;;13.20;102157.00;;;;10537697;28;20337;-78
2022/03/14 17:12:24;;;;;;;5.03;1.60;;;;;12.90;102164.00;;;;10491745;28;20207;-78
2022/03/14 17:17:26;;;;;;;6.23;1.93;;;;;12.60;102165.00;;;;10510406;28;20246;-77
2022/03/14 17:22:28;;;;;;;9.13;2.20;;;;;12.30;102180.00;;;;10494574;28;20192;-78
2022/03/14 17:27:31;;;;;;;7.27;2.43;;;;;12.10;102179.00;;;;10504818;28;20180;-78
2022/03/14 17:32:33;;;;;;;7.40;2.90;;;;;11.90;102191.00;;;;10487190;28;20213;-78
2022/03/14 17:37:37;;;;;;;12.53;2.47;;;;;11.60;102192.00;;;;10470066;28;20201;-78
2022/03/14 17:42:40;;;;;;;8.70;2.37;;;;;11.40;102202.00;;;;10490064;28;20224;-78
2022/03/14 17:47:43;;;;;;;11.50;2.53;;;;;11.20;102198.00;;;;10486846;28;20192;-78
2022/03/14 17:52:45;;;;;;;8.40;2.53;;;;;11.00;102200.00;;;;10505197;28;20251;-77
2022/03/14 17:57:48;;;;;;;9.93;2.60;;;;;10.80;102203.00;;;;10504673;28;20659;-77
2022/03/14 18:02:50;;;;;;;9.60;4.10;;;;;10.60;102191.00;;;;10487512;28;20679;-77
2022/03/14 18:07:54;;;;;;;15.20;5.40;;;;;10.50;102194.00;;;;10520609;28;20205;-77
2022/03/14 18:12:58;;;;;;;19.53;3.63;;;;;10.40;102192.00;;;;10487071;28;20208;-78
2022/03/14 18:18:01;;;;;;;9.30;2.73;;;;;10.20;102191.00;;;;10487054;28;20197;-78
2022/03/14 18:23:19;;;;;;;10.03;2.10;;;;;10.10;102187.00;;;;10472679;28;20180;-78
2022/03/14 18:28:22;;;;;;;8.53;2.13;;;;;10.00;102190.00;;;;10470863;28;20185;-78
2022/03/14 18:33:27;;;;;;;6.70;2.70;;;;;9.90;102201.00;;;;10519578;28;20213;-78
2022/03/14 18:38:29;;;;;;;14.93;5.53;;;;;9.80;102203.00;;;;10461577;28;20239;-78
2022/03/14 18:43:33;;;;;;;10.20;5.23;;;;;9.80;102208.00;;;;10497349;28;20192;-78
2022/03/14 18:48:36;;;;;;;14.93;4.93;;;;;9.70;102208.00;;;;10502697;28;20284;-78
2022/03/14 18:53:43;;;;;;;10.27;4.60;;;;;9.60;102205.00;;;;10502530;28;20232;-78
2022/03/14 18:58:45;;;;;;;13.57;4.97;;;;;9.50;102216.00;;;;10486450;28;20216;-78
2022/03/14 19:03:50;;;;;;;9.37;3.50;;;;;9.40;102218.00;;;;10518908;28;20197;-78
2022/03/14 19:08:52;;;;;;;10.10;2.73;;;;;9.40;102222.00;;;;10486406;28;20200;-78
2022/03/14 19:13:58;;;;;;;11.10;3.67;;;;;9.40;102230.00;;;;10486079;28;20556;-78
2022/03/14 19:19:02;;;;;;;13.57;5.60;;;;;9.40;102231.00;;;;10502558;28;20199;-78
2022/03/14 19:24:05;;;;;;;13.20;4.97;;;;;9.50;102225.00;;;;10486137;28;20224;-78
2022/03/14 19:29:07;;;;;;;12.47;4.27;;;;;9.40;102213.00;;;;10492756;28;20196;-79
2022/03/14 19:34:11;;;;;;;11.50;4.90;;;;;9.30;102221.00;;;;10491042;28;20207;-78
2022/03/14 19:39:13;;;;;;;19.20;7.97;;;;;9.20;102219.00;;;;10510431;28;20212;-78
2022/03/14 19:44:16;;;;;;;14.70;8.10;;;;;9.10;102230.00;;;;10505462;28;20216;-78
2022/03/14 19:49:19;;;;;;;17.47;8.03;;;;;9.00;102233.00;;;;10493173;28;20734;-78
2022/03/14 19:54:21;;;;;;;10.73;6.87;;;;;8.90;102234.00;;;;10476847;28;20201;-78
2022/03/14 19:59:24;;;;;;;13.57;6.97;;;;;8.80;102239.00;;;;10477148;28;20238;-78
2022/03/14 20:04:27;;;;;;;12.37;6.80;;;;;8.70;102242.00;;;;10512951;28;20216;-79
2022/03/14 20:09:30;;;;;;;11.70;5.90;;;;;8.50;102246.00;;;;10509461;28;20254;-78
2022/03/14 20:14:34;;;;;;;15.60;7.17;;;;;8.40;102248.00;;;;10492813;28;20273;-78
2022/03/14 20:19:35;;;;;;;15.53;8.70;;;;;8.10;102242.00;;;;10483566;28;20249;-78
2022/03/14 20:24:37;;;;;;;13.93;7.77;;;;;8.00;102233.00;;;;10490061;28;20205;-78
2022/03/14 20:29:40;;;;;;;13.10;7.33;;;;;7.80;102236.00;;;;10508829;28;20674;-78
2022/03/14 20:34:42;;;;;;;17.60;8.67;;;;;7.80;102250.00;;;;10524875;28;20204;-78
2022/03/14 20:39:44;;;;;;;11.80;7.70;;;;;7.90;102255.00;;;;10524273;28;20308;-78
2022/03/14 20:44:46;;;;;;;14.93;7.93;;;;;7.90;102252.00;;;;10507667;28;20185;-78
2022/03/14 20:49:50;;;;;;;19.73;8.73;;;;;7.80;102253.00;;;;10491643;28;20655;-78
2022/03/14 20:54:52;;;;;;;16.30;8.83;;;;;7.60;102260.00;;;;10474797;28;20273;-78
2022/03/14 20:59:54;;;;;;;15.97;8.73;;;;;7.50;102261.00;;;;10524382;28;20198;-78
2022/03/14 21:04:57;;;;;;;16.33;9.33;;;;;7.40;102256.00;;;;10490692;28;20197;-78
2022/03/14 21:09:59;;;;;;;16.90;9.03;;;;;7.30;102253.00;;;;10474002;28;20220;-78
2022/03/14 21:15:01;;;;;;;15.87;8.47;;;;;7.30;102251.00;;;;10523191;28;20193;-78
2022/03/14 21:20:03;;;;;;;16.43;8.63;;;;;7.20;102249.00;;;;10504192;28;20200;-78
2022/03/14 21:25:11;;;;;;;20.17;8.50;;;;;7.20;102253.00;;;;10489971;28;20192;-78
2022/03/14 21:30:13;;;;;;;14.03;8.30;;;;;7.10;102265.00;;;;10489932;28;20215;-78
2022/03/14 21:35:17;;;;;;;19.40;7.70;;;;;7.00;102273.00;;;;10506419;28;20271;-78
2022/03/14 21:40:20;;;;;;;22.10;7.97;;;;;7.00;102263.00;;;;10472648;28;20740;-78
2022/03/14 21:45:25;;;;;;;14.37;7.97;;;;;6.90;102260.00;;;;10446966;28;20205;-78
2022/03/14 21:50:30;;;;;;;20.43;9.00;;;;;6.90;102263.00;;;;10463449;28;20304;-78
2022/03/14 21:55:34;;;;;;;14.03;8.47;;;;;6.80;102268.00;;;;10477566;28;20227;-79
2022/03/14 22:00:37;;;;;;;19.80;9.10;;;;;6.70;102261.00;;;;10453402;28;20193;-78
2022/03/14 22:05:40;;;;;;;15.47;9.00;;;;;6.70;102264.00;;;;10489047;28;20197;-78
2022/03/14 22:10:42;;;;;;;20.63;9.23;;;;;6.70;102271.00;;;;10488415;28;20201;-78
2022/03/14 22:15:45;;;;;;;14.97;8.07;;;;;6.70;102268.00;;;;10521688;28;20258;-78
2022/03/14 22:20:47;;;;;;;16.50;7.63;;;;;6.80;102266.00;;;;10521280;28;20181;-78
2022/03/14 22:25:49;;;;;;;14.80;8.07;;;;;6.90;102258.00;;;;10521124;28;20192;-78
2022/03/14 22:30:51;;;;;;;21.97;9.00;;;;;7.10;102266.00;;;;10504147;28;20209;-78
2022/03/14 22:35:53;;;;;;;16.20;8.10;;;;;7.10;102259.00;;;;10487481;28;20196;-78
2022/03/14 22:40:56;;;;;;;16.37;8.73;;;;;7.10;102256.00;;;;10503444;28;20217;-78
2022/03/14 22:45:58;;;;;;;21.07;8.53;;;;;7.10;102256.00;;;;10503931;28;20188;-77
2022/03/14 22:51:00;;;;;;;22.43;8.97;;;;;7.10;102253.00;;;;10486561;28;20208;-78
2022/03/14 22:56:02;;;;;;;18.97;8.70;;;;;7.10;102261.00;;;;10503461;28;20258;-78
2022/03/14 23:01:04;;;;;;;18.33;9.13;;;;;7.20;102255.00;;;;10519483;28;20185;-78
2022/03/14 23:06:06;;;;;;;17.03;7.97;;;;;7.20;102271.00;;;;10502800;28;20193;-78
2022/03/14 23:11:28;;;;;;;17.13;9.90;;;;;7.20;102269.00;;;;10502905;28;20204;-77
2022/03/14 23:16:38;;;;;;;14.77;7.83;;;;;7.20;102265.00;;;;10486325;28;20552;-78
2022/03/14 23:21:43;;;;;;;15.30;8.43;;;;;7.10;102268.00;;;;10469752;28;20234;-78
2022/03/14 23:26:49;;;;;;;19.23;8.27;;;;;7.00;102263.00;;;;10470113;28;20233;-78
2022/03/14 23:31:52;;;;;;;15.30;8.30;;;;;7.00;102259.00;;;;10502884;28;20208;-78
2022/03/14 23:36:56;;;;;;;18.63;9.33;;;;;6.90;102252.00;;;;10502451;28;20197;-78
2022/03/14 23:41:58;;;;;;;21.87;9.50;;;;;6.80;102248.00;;;;10502601;28;20269;-78
2022/03/14 23:47:00;;;;;;;18.73;9.77;;;;;6.80;102246.00;;;;10502407;28;20185;-78
2022/03/14 23:52:02;;;;;;;13.23;8.90;;;;;6.70;102235.00;;;;10486075;28;20292;-78
2022/03/14 23:57:03;;;;;;;14.57;8.27;;;;;6.60;102223.00;;;;10460938;28;20210;-78
